Walhalla, Michigan
Current Conditions -  °F | °C
As of 12:15 PM on Sunday 21 Dec 2014 (Local Time) from KLDM Reporting Station
Haze Haze  
Wind Chill: 28°   Ceiling: 4100
Heat Index: 36°   Visibility: 4mi
Dew Point: 32°   Wind: 10mph
Humidity: 86%   Direction: 170°S
Pressure: 30.17"   Gusts: 17mph
Location:  43.95°N, 86.11°W
Report Text: KLDM 211715Z AUTO 17009G15KT 4SM BR SCT016 OVC041 02/00 A3017 RMK AO2 T00201001
Loading
Personal Weather Stations






























Interactive Weather Map New forecast layout! Learn more

10-Day Weather Forecast

Advertisements
Track Severe Weather on mobile